createdAt,value
2023-05-02T00:00:51.150Z,13.34
2023-05-02T00:03:17.938Z,13.38
2023-05-02T00:05:44.714Z,13.38
2023-05-02T00:08:11.666Z,13.31
2023-05-02T00:10:38.378Z,13.36
2023-05-02T00:13:05.074Z,13.36
2023-05-02T00:15:31.822Z,13.36
2023-05-02T00:17:58.434Z,13.39
2023-05-02T00:20:25.313Z,13.36
2023-05-02T00:22:51.961Z,13.38
2023-05-02T00:25:18.632Z,13.38
2023-05-02T00:27:45.470Z,13.28
2023-05-02T00:30:12.607Z,13.28
2023-05-02T00:32:39.280Z,13.18
2023-05-02T00:35:06.896Z,13.13
2023-05-02T00:37:33.619Z,13.10
2023-05-02T00:40:00.594Z,13.05
2023-05-02T00:42:27.481Z,13.04
2023-05-02T00:44:54.066Z,13.01
2023-05-02T00:47:20.808Z,12.99
2023-05-02T00:49:47.377Z,12.97
2023-05-02T00:52:14.019Z,12.92
2023-05-02T00:54:40.794Z,12.91
2023-05-02T00:57:07.505Z,12.92
2023-05-02T00:59:36.880Z,12.90
2023-05-02T01:02:43.381Z,12.91
2023-05-02T01:05:13.086Z,12.85
2023-05-02T01:07:59.753Z,12.86
2023-05-02T01:10:38.184Z,12.87
2023-05-02T01:13:28.193Z,12.80
2023-05-02T01:15:58.099Z,12.79
2023-05-02T01:18:28.218Z,12.77
2023-05-02T01:21:01.332Z,12.76
2023-05-02T01:23:46.476Z,12.72
2023-05-02T01:26:21.614Z,12.69
2023-05-02T01:29:01.826Z,12.68
2023-05-02T01:31:49.459Z,12.64
2023-05-02T01:34:18.955Z,12.65
2023-05-02T01:36:48.829Z,12.59
2023-05-02T01:39:20.658Z,12.56
2023-05-02T01:41:50.623Z,12.57
2023-05-02T01:44:20.088Z,12.55
2023-05-02T01:46:48.662Z,12.52
2023-05-02T01:49:15.384Z,12.47
2023-05-02T01:51:48.001Z,12.46
2023-05-02T01:54:17.208Z,12.43
2023-05-02T01:56:44.951Z,12.41
2023-05-02T01:59:15.571Z,12.37
2023-05-02T02:01:43.911Z,12.36
2023-05-02T02:04:13.935Z,12.35
2023-05-02T02:06:44.559Z,12.34
2023-05-02T02:09:11.340Z,12.32
2023-05-02T02:11:46.127Z,12.31
2023-05-02T02:14:18.974Z,12.31
2023-05-02T02:16:46.411Z,12.29
2023-05-02T02:19:15.483Z,12.28
2023-05-02T02:21:48.230Z,12.25
2023-05-02T02:24:18.037Z,12.22
2023-05-02T02:26:44.817Z,12.23
2023-05-02T02:29:11.792Z,12.21
2023-05-02T02:31:38.568Z,12.22
2023-05-02T02:34:05.793Z,12.17
2023-05-02T02:37:01.871Z,12.14
2023-05-02T02:39:40.451Z,12.14
2023-05-02T02:42:36.074Z,12.05
2023-05-02T02:45:20.736Z,12.05
2023-05-02T02:48:22.812Z,12.01
2023-05-02T02:51:12.039Z,11.95
2023-05-02T02:54:05.862Z,11.90
2023-05-02T02:56:40.452Z,11.92
2023-05-02T02:59:14.561Z,11.91
2023-05-02T03:01:44.066Z,11.87
2023-05-02T03:04:13.548Z,11.85
2023-05-02T03:06:40.460Z,11.88
2023-05-02T03:09:14.559Z,11.83
2023-05-02T03:11:41.260Z,11.84
2023-05-02T03:14:07.957Z,11.89
2023-05-02T03:16:41.650Z,11.87
2023-05-02T03:19:08.532Z,11.85
2023-05-02T03:21:35.475Z,11.84
2023-05-02T03:24:04.430Z,11.76
2023-05-02T03:26:31.283Z,11.79
2023-05-02T03:28:57.936Z,11.76
2023-05-02T03:31:26.397Z,11.72
2023-05-02T03:33:53.566Z,11.73
2023-05-02T03:36:20.181Z,11.73
2023-05-02T03:38:46.812Z,11.71
2023-05-02T03:41:13.506Z,11.73
2023-05-02T03:43:43.092Z,11.74
2023-05-02T03:46:10.170Z,11.72
2023-05-02T03:48:36.837Z,11.78
2023-05-02T03:51:04.970Z,11.80
2023-05-02T03:53:31.771Z,11.84
2023-05-02T03:55:58.537Z,11.89
2023-05-02T03:58:25.745Z,11.95
2023-05-02T04:00:52.541Z,11.96
2023-05-02T04:03:19.931Z,11.99
2023-05-02T04:05:46.842Z,12.05
2023-05-02T04:08:13.613Z,12.09
2023-05-02T04:10:40.397Z,12.12
2023-05-02T04:13:07.041Z,12.18
2023-05-02T04:15:33.807Z,12.22
2023-05-02T04:18:01.002Z,12.29
2023-05-02T04:20:27.722Z,12.32
2023-05-02T04:22:54.350Z,12.40
2023-05-02T04:25:21.084Z,12.48
2023-05-02T04:27:47.746Z,12.55
2023-05-02T04:30:14.383Z,12.55
2023-05-02T04:32:41.162Z,12.63
2023-05-02T04:35:08.186Z,12.70
2023-05-02T04:37:38.110Z,12.83
2023-05-02T04:40:05.386Z,12.95
2023-05-02T04:42:32.034Z,13.09
2023-05-02T04:44:58.638Z,13.30
2023-05-02T04:47:25.402Z,13.47
2023-05-02T04:49:52.152Z,13.61
2023-05-02T04:52:18.966Z,13.80
2023-05-02T04:54:45.605Z,13.93
2023-05-02T04:57:12.235Z,13.77
2023-05-02T04:59:38.857Z,13.85
2023-05-02T05:02:05.740Z,13.87
2023-05-02T05:04:32.505Z,14.09
2023-05-02T05:06:59.310Z,14.14
2023-05-02T05:09:26.012Z,14.22
2023-05-02T05:11:52.817Z,14.25
2023-05-02T05:14:19.623Z,14.33
2023-05-02T05:16:46.423Z,14.42
2023-05-02T05:19:13.077Z,14.59
2023-05-02T05:21:39.679Z,14.90
2023-05-02T05:24:06.580Z,15.19
2023-05-02T05:26:33.338Z,15.45
2023-05-02T05:28:59.952Z,15.62
2023-05-02T05:31:26.709Z,15.99
2023-05-02T05:33:53.541Z,16.33
2023-05-02T05:36:22.112Z,16.58
2023-05-02T05:38:50.999Z,16.78
2023-05-02T05:41:17.678Z,16.74
2023-05-02T05:43:44.376Z,16.71
2023-05-02T05:46:11.035Z,16.71
2023-05-02T05:48:37.729Z,16.75
2023-05-02T05:51:05.487Z,16.93
2023-05-02T05:53:32.507Z,17.24
2023-05-02T05:56:11.946Z,17.26
2023-05-02T05:58:41.739Z,17.46
2023-05-02T06:01:08.469Z,17.69
2023-05-02T06:03:35.469Z,17.95
2023-05-02T06:06:04.299Z,18.20
2023-05-02T06:08:30.949Z,18.31
2023-05-02T06:11:00.666Z,18.46
2023-05-02T06:13:27.336Z,18.57
2023-05-02T06:15:54.087Z,18.57
2023-05-02T06:18:20.762Z,18.58
2023-05-02T06:20:47.468Z,18.49
2023-05-02T06:23:17.414Z,18.29
2023-05-02T06:25:44.616Z,18.36
2023-05-02T06:28:18.185Z,18.29
2023-05-02T06:30:44.893Z,18.59
2023-05-02T06:33:11.573Z,18.65
2023-05-02T06:35:39.368Z,18.80
2023-05-02T06:38:09.060Z,18.94
2023-05-02T06:40:36.024Z,19.10
2023-05-02T06:43:02.774Z,19.41
2023-05-02T06:45:32.553Z,19.52
2023-05-02T06:47:59.280Z,19.67
2023-05-02T06:50:26.142Z,19.88
2023-05-02T06:52:52.804Z,20.13
2023-05-02T06:55:19.509Z,20.42
2023-05-02T06:57:46.171Z,20.67
2023-05-02T07:00:13.436Z,20.60
2023-05-02T07:02:40.230Z,20.40
2023-05-02T07:05:20.389Z,20.65
2023-05-02T07:07:47.039Z,20.51
2023-05-02T07:10:13.869Z,20.66
2023-05-02T07:12:41.818Z,20.83
2023-05-02T07:15:08.955Z,20.86
2023-05-02T07:17:35.679Z,20.61
2023-05-02T07:20:02.846Z,20.57
2023-05-02T07:22:29.773Z,20.53
2023-05-02T07:25:02.709Z,20.30
2023-05-02T07:27:29.401Z,20.17
2023-05-02T07:29:57.067Z,19.99
2023-05-02T07:35:13.370Z,20.20
2023-05-02T07:37:46.784Z,20.19
2023-05-02T07:40:13.559Z,20.17
2023-05-02T07:42:40.197Z,20.40
2023-05-02T07:45:07.957Z,20.60
2023-05-02T07:47:46.744Z,20.77
2023-05-02T07:50:43.265Z,20.66
2023-05-02T07:53:20.542Z,20.52
2023-05-02T07:55:51.519Z,20.79
2023-05-02T07:58:18.334Z,20.91
2023-05-02T08:00:45.043Z,21.15
2023-05-02T08:03:11.865Z,21.45
2023-05-02T08:05:38.486Z,21.67
2023-05-02T08:08:05.452Z,21.86
2023-05-02T08:10:32.118Z,21.53
2023-05-02T08:12:58.799Z,21.46
2023-05-02T08:15:25.829Z,21.64
2023-05-02T08:17:52.640Z,21.88
2023-05-02T08:20:19.305Z,21.90
2023-05-02T08:22:46.048Z,21.95
2023-05-02T08:25:12.855Z,21.92
2023-05-02T08:27:42.321Z,21.86
2023-05-02T08:30:09.310Z,21.82
2023-05-02T08:32:36.813Z,22.07
2023-05-02T08:35:03.981Z,22.05
2023-05-02T08:37:30.640Z,22.12
2023-05-02T08:39:57.610Z,22.33
2023-05-02T08:42:25.289Z,22.37
2023-05-02T08:44:52.019Z,22.38
2023-05-02T08:47:19.471Z,22.38
2023-05-02T08:49:47.240Z,22.40
2023-05-02T08:52:15.961Z,22.15
2023-05-02T08:54:43.131Z,22.16
2023-05-02T08:57:12.291Z,22.30
2023-05-02T08:59:39.259Z,22.44
2023-05-02T09:02:18.257Z,22.40
2023-05-02T09:04:47.855Z,22.64
2023-05-02T09:07:16.767Z,22.79
2023-05-02T09:09:43.566Z,22.99
2023-05-02T09:12:10.304Z,22.92
2023-05-02T09:14:37.400Z,22.72
2023-05-02T09:17:04.260Z,22.80
2023-05-02T09:19:31.418Z,22.78
2023-05-02T09:22:01.282Z,22.90
2023-05-02T09:24:31.077Z,22.91
2023-05-02T09:27:03.602Z,22.95
2023-05-02T09:29:32.361Z,22.88
2023-05-02T09:32:01.455Z,22.98
2023-05-02T09:34:28.414Z,23.00
2023-05-02T09:36:55.049Z,23.11
2023-05-02T09:39:30.497Z,23.14
2023-05-02T09:41:58.258Z,23.20
2023-05-02T09:44:26.600Z,23.18
2023-05-02T09:46:57.327Z,23.34
2023-05-02T09:49:41.713Z,23.55
2023-05-02T09:52:13.097Z,23.57
2023-05-02T09:54:40.018Z,23.58
2023-05-02T09:57:39.677Z,23.69
2023-05-02T10:00:08.149Z,23.75
2023-05-02T10:02:36.048Z,23.76
2023-05-02T10:05:07.493Z,23.76
2023-05-02T10:07:34.665Z,23.78
2023-05-02T10:10:02.814Z,23.90
2023-05-02T10:12:32.779Z,24.05
2023-05-02T10:15:04.597Z,23.91
2023-05-02T10:17:39.460Z,23.95
2023-05-02T10:20:16.541Z,24.09
2023-05-02T10:22:47.606Z,23.94
2023-05-02T10:25:14.575Z,23.73
2023-05-02T10:27:42.072Z,23.78
2023-05-02T10:30:20.402Z,23.86
2023-05-02T10:32:49.531Z,23.82
2023-05-02T10:35:16.363Z,23.69
2023-05-02T10:37:45.506Z,23.50
2023-05-02T10:40:13.391Z,23.60
2023-05-02T10:42:44.341Z,23.68
2023-05-02T10:45:13.377Z,23.67
2023-05-02T10:47:40.803Z,23.65
2023-05-02T10:50:07.910Z,23.68
2023-05-02T10:52:36.802Z,23.97
2023-05-02T10:55:42.767Z,24.20
2023-05-02T10:58:10.511Z,24.23
2023-05-02T11:00:37.517Z,24.29
2023-05-02T11:03:05.299Z,24.40
2023-05-02T11:05:32.009Z,24.53
2023-05-02T11:08:21.364Z,24.58
2023-05-02T11:10:49.936Z,24.48
2023-05-02T11:13:16.598Z,24.46
2023-05-02T11:15:43.330Z,24.46
2023-05-02T11:18:14.468Z,24.27
2023-05-02T11:20:42.549Z,24.43
2023-05-02T11:23:15.109Z,24.24
2023-05-02T11:25:46.786Z,24.20
2023-05-02T11:28:37.885Z,24.07
2023-05-02T11:31:25.094Z,24.18
2023-05-02T11:34:02.513Z,24.23
2023-05-02T11:36:35.681Z,24.28
2023-05-02T11:39:04.715Z,23.99
2023-05-02T11:41:47.080Z,23.58
2023-05-02T11:44:13.696Z,23.53
2023-05-02T11:46:41.131Z,23.31
2023-05-02T11:49:12.674Z,23.48
2023-05-02T11:51:49.129Z,23.66
2023-05-02T11:54:22.084Z,23.65
2023-05-02T11:56:55.120Z,23.68
2023-05-02T11:59:21.822Z,23.74
2023-05-02T12:01:52.800Z,23.83
2023-05-02T12:04:19.616Z,23.89
2023-05-02T12:07:04.820Z,23.94
2023-05-02T12:09:31.575Z,24.01
2023-05-02T12:11:58.239Z,23.86
2023-05-02T12:14:29.443Z,23.76
2023-05-02T12:16:58.477Z,23.72
2023-05-02T12:19:31.455Z,23.53
2023-05-02T12:22:02.000Z,23.28
2023-05-02T12:24:50.183Z,23.23
2023-05-02T12:27:17.321Z,23.49
2023-05-02T12:29:48.616Z,23.67
2023-05-02T12:32:29.752Z,23.86
2023-05-02T12:35:00.567Z,23.85
2023-05-02T12:37:28.489Z,23.83
2023-05-02T12:39:56.503Z,23.85
2023-05-02T12:42:25.242Z,23.88
2023-05-02T12:44:52.747Z,23.90
2023-05-02T12:47:20.749Z,24.12
2023-05-02T12:50:00.940Z,24.34
2023-05-02T12:52:47.427Z,24.38
2023-05-02T12:55:17.990Z,24.53
2023-05-02T12:57:44.827Z,24.49
2023-05-02T13:00:12.230Z,24.43
2023-05-02T13:02:38.982Z,24.33
2023-05-02T13:05:16.154Z,24.07
2023-05-02T13:07:42.839Z,23.79
2023-05-02T13:10:11.269Z,23.46
2023-05-02T13:12:38.310Z,23.50
2023-05-02T13:15:07.855Z,23.65
2023-05-02T13:17:35.589Z,23.95
